Time;durP1;ratioP1;P1;durP2;ratioP2;P2;SDS_P1;SDS_P2;PMS_P1;PMS_P2;Temp;Humidity;BMP_temperature;BMP_pressure;BME280_temperature;BME280_humidity;BME280_pressure;Samples;Min_cycle;Max_cycle;Signal;HPM_P1;HPM_P2
2022/04/02 00:02:01;;;;;;;5.78;3.80;;;5.30;90.20;;;;;;5095973;28;20103;-13
2022/04/02 00:04:28;;;;;;;7.13;4.80;;;5.40;90.10;;;;;;5095060;28;20020;-13
2022/04/02 00:06:54;;;;;;;9.15;4.60;;;5.40;90.00;;;;;;5095280;28;20581;-14
2022/04/02 00:09:21;;;;;;;8.95;5.28;;;5.50;89.90;;;;;;5095116;28;20049;-14
2022/04/02 00:11:47;;;;;;;9.43;5.95;;;5.60;89.90;;;;;;5095483;28;20024;-13
2022/04/02 00:14:13;;;;;;;9.10;5.40;;;5.60;89.80;;;;;;5094843;28;20553;-14
2022/04/02 00:16:40;;;;;;;11.18;6.07;;;5.70;89.90;;;;;;5095261;28;20024;-13
2022/04/02 00:19:06;;;;;;;10.95;6.85;;;5.70;89.80;;;;;;5095348;28;20169;-13
2022/04/02 00:21:32;;;;;;;11.45;6.95;;;5.80;89.90;;;;;;5095288;28;20020;-14
2022/04/02 00:23:58;;;;;;;12.57;7.20;;;5.80;89.90;;;;;;5095163;28;20024;-13
2022/04/02 00:26:24;;;;;;;9.60;5.93;;;5.90;90.00;;;;;;5094787;28;20484;-14
2022/04/02 00:28:51;;;;;;;8.60;5.03;;;5.90;89.80;;;;;;5095125;28;20085;-14
2022/04/02 00:31:19;;;;;;;10.95;6.43;;;5.90;89.70;;;;;;5095092;28;20036;-13
2022/04/02 00:33:46;;;;;;;10.80;5.80;;;6.00;89.70;;;;;;5094628;28;20416;-14
2022/04/02 00:36:14;;;;;;;10.93;5.97;;;6.00;89.70;;;;;;5095101;28;20027;-14
2022/04/02 00:38:41;;;;;;;11.38;5.05;;;6.00;89.80;;;;;;5094531;28;20066;-13
2022/04/02 00:41:08;;;;;;;8.32;5.68;;;6.10;89.80;;;;;;5094995;28;20070;-13
2022/04/02 00:43:36;;;;;;;9.60;4.90;;;6.10;89.70;;;;;;5094676;28;20112;-15
2022/04/02 00:46:06;;;;;;;8.95;4.72;;;6.10;89.60;;;;;;5094824;28;20050;-13
2022/04/02 00:48:32;;;;;;;7.97;5.07;;;6.20;89.50;;;;;;5094541;28;20553;-13
2022/04/02 00:51:01;;;;;;;8.90;5.00;;;6.20;89.60;;;;;;5094746;28;20051;-13
2022/04/02 00:53:39;;;;;;;12.32;5.40;;;6.20;89.60;;;;;;5093997;28;20044;-14
2022/04/02 00:56:06;;;;;;;9.32;4.93;;;6.20;89.50;;;;;;5093170;28;20039;-13
2022/04/02 00:58:32;;;;;;;9.30;4.68;;;6.20;89.50;;;;;;5094398;28;20024;-14
2022/04/02 01:00:58;;;;;;;10.80;5.38;;;6.30;89.60;;;;;;5094483;28;20063;-13
2022/04/02 01:03:25;;;;;;;16.13;5.90;;;6.30;89.70;;;;;;5094118;28;20039;-13
2022/04/02 01:05:51;;;;;;;10.90;5.78;;;6.40;89.60;;;;;;5094433;28;20039;-13
2022/04/02 01:08:18;;;;;;;11.85;5.25;;;6.40;89.70;;;;;;5094097;28;20388;-14
2022/04/02 01:11:36;;;;;;;9.57;5.22;;;6.40;89.70;;;;;;5094357;28;20051;-14
2022/04/02 01:14:02;;;;;;;10.13;5.43;;;6.40;89.70;;;;;;5093872;28;20444;-13
2022/04/02 01:16:28;;;;;;;12.85;6.43;;;6.40;89.70;;;;;;5093745;28;20032;-13
2022/04/02 01:18:54;;;;;;;10.07;6.15;;;6.30;89.70;;;;;;5093968;28;20016;-12
2022/04/02 01:21:21;;;;;;;14.18;7.30;;;6.30;89.60;;;;;;5094146;28;20435;-13
2022/04/02 01:23:47;;;;;;;12.13;6.85;;;6.30;89.50;;;;;;5094035;28;20028;-14
2022/04/02 01:26:12;;;;;;;8.45;5.20;;;6.30;89.60;;;;;;5093921;28;20475;-13
2022/04/02 01:28:40;;;;;;;8.18;4.95;;;6.30;89.70;;;;;;5093751;28;20395;-13
2022/04/02 01:31:07;;;;;;;8.13;4.70;;;6.30;89.80;;;;;;5093672;28;20104;-13
2022/04/02 01:33:34;;;;;;;5.85;4.07;;;6.30;89.90;;;;;;5093862;28;20426;-14
2022/04/02 01:36:01;;;;;;;10.25;6.30;;;6.30;90.00;;;;;;5093930;28;20028;-13
2022/04/02 01:38:28;;;;;;;10.30;6.45;;;6.30;90.00;;;;;;5093272;28;20012;-13
2022/04/02 01:40:56;;;;;;;10.23;5.75;;;6.30;90.00;;;;;;5093597;28;20077;-14
2022/04/02 01:43:23;;;;;;;8.52;5.00;;;6.40;90.00;;;;;;5093511;28;20031;-14
2022/04/02 01:45:56;;;;;;;10.77;5.90;;;6.40;90.00;;;;;;5093463;28;20521;-13
2022/04/02 01:48:22;;;;;;;10.00;5.97;;;6.40;90.10;;;;;;5093376;28;20016;-13
2022/04/02 01:50:49;;;;;;;8.20;5.00;;;6.50;90.10;;;;;;5093722;28;20028;-12
2022/04/02 01:53:16;;;;;;;11.73;6.38;;;6.50;90.00;;;;;;5093083;28;20048;-12
2022/04/02 01:55:41;;;;;;;13.07;6.80;;;6.60;89.90;;;;;;5093655;28;20035;-13
2022/04/02 01:58:07;;;;;;;10.77;6.18;;;6.60;89.80;;;;;;5093315;28;20430;-13
2022/04/02 02:00:33;;;;;;;10.45;6.57;;;6.70;89.60;;;;;;5092727;28;20016;-13
2022/04/02 02:02:59;;;;;;;13.00;7.25;;;6.70;89.60;;;;;;5093500;28;20024;-13
2022/04/02 02:05:26;;;;;;;13.13;6.38;;;6.80;89.60;;;;;;5093549;28;20070;-13
2022/04/02 02:07:53;;;;;;;10.77;6.80;;;6.70;89.50;;;;;;5093433;28;20035;-14
2022/04/02 02:10:20;;;;;;;10.73;6.13;;;6.70;89.50;;;;;;5092935;28;20027;-13
2022/04/02 02:12:46;;;;;;;11.38;6.25;;;6.70;89.60;;;;;;5093050;28;20058;-13
2022/04/02 02:15:16;;;;;;;12.23;6.22;;;6.70;89.50;;;;;;5093630;28;20046;-13
2022/04/02 02:17:50;;;;;;;10.52;6.07;;;6.70;89.60;;;;;;5093129;28;20035;-13
2022/04/02 02:20:17;;;;;;;11.55;6.25;;;6.80;89.70;;;;;;5092912;28;20024;-14
2022/04/02 02:22:44;;;;;;;19.27;7.75;;;6.80;89.70;;;;;;5093065;28;20032;-13
2022/04/02 02:25:12;;;;;;;14.95;7.63;;;6.80;89.70;;;;;;5092922;28;20024;-13
2022/04/02 02:27:39;;;;;;;17.50;8.18;;;6.80;89.70;;;;;;5093011;28;20491;-13
2022/04/02 02:30:07;;;;;;;12.55;5.90;;;6.80;89.70;;;;;;5093064;28;20021;-13
2022/04/02 02:32:36;;;;;;;13.63;6.95;;;6.90;89.70;;;;;;5092753;28;20031;-13
2022/04/02 02:38:08;;;;;;;14.50;6.75;;;6.90;89.60;;;;;;5093309;28;20044;-14
2022/04/02 02:40:35;;;;;;;14.88;6.97;;;6.90;89.50;;;;;;5091362;28;20035;-15
2022/04/02 02:43:02;;;;;;;12.70;6.93;;;6.90;89.40;;;;;;5093687;28;20028;-14
2022/04/02 02:45:28;;;;;;;12.20;5.82;;;6.90;89.40;;;;;;5093166;28;20061;-14
2022/04/02 02:47:54;;;;;;;19.95;7.50;;;6.90;89.40;;;;;;5093154;28;20485;-14
2022/04/02 02:50:21;;;;;;;15.75;7.13;;;6.90;89.40;;;;;;5092930;28;20028;-13
2022/04/02 02:52:47;;;;;;;14.40;5.22;;;6.90;89.30;;;;;;5092775;28;20056;-14
2022/04/02 02:55:13;;;;;;;16.88;5.78;;;6.90;88.70;;;;;;5091361;28;20089;-14
2022/04/02 02:57:41;;;;;;;10.70;4.68;;;6.90;87.70;;;;;;5092657;28;20043;-13
2022/04/02 03:00:08;;;;;;;8.68;4.60;;;7.00;86.40;;;;;;5092704;28;20036;-14
2022/04/02 03:02:37;;;;;;;11.10;4.45;;;7.00;85.90;;;;;;5092513;28;20441;-13
2022/04/02 03:05:11;;;;;;;8.90;4.70;;;7.00;85.60;;;;;;5092684;28;20535;-13
2022/04/02 03:07:39;;;;;;;10.70;4.60;;;7.00;85.40;;;;;;5092984;28;20051;-14
2022/04/02 03:10:06;;;;;;;11.88;4.85;;;7.00;84.80;;;;;;5092533;28;20036;-15
2022/04/02 03:12:33;;;;;;;9.82;4.03;;;7.10;84.20;;;;;;5092923;28;20028;-16
2022/04/02 03:15:03;;;;;;;7.82;3.92;;;7.00;84.30;;;;;;5096289;28;20052;-13
2022/04/02 03:17:31;;;;;;;8.88;4.05;;;6.90;83.90;;;;;;5095032;28;20024;-14
2022/04/02 03:19:57;;;;;;;11.13;3.88;;;6.90;83.70;;;;;;5096496;28;20032;-13
2022/04/02 03:22:25;;;;;;;11.82;4.35;;;6.90;83.80;;;;;;5096226;28;20051;-14
2022/04/02 03:24:51;;;;;;;11.98;4.43;;;6.80;84.20;;;;;;5096021;28;20476;-13
2022/04/02 03:27:17;;;;;;;9.65;3.97;;;6.70;84.60;;;;;;5096030;28;20427;-14
2022/04/02 03:29:43;;;;;;;9.02;4.15;;;6.60;84.70;;;;;;5096494;28;20090;-13
2022/04/02 03:32:09;;;;;;;10.90;3.95;;;6.60;84.60;;;;;;5095976;28;20476;-13
2022/04/02 03:34:35;;;;;;;11.60;3.33;;;6.60;85.10;;;;;;5095639;28;20024;-14
2022/04/02 03:37:00;;;;;;;12.00;3.83;;;6.60;85.20;;;;;;5096153;28;20115;-13
2022/04/02 03:39:26;;;;;;;5.68;3.22;;;6.60;85.20;;;;;;5095666;28;20032;-13
2022/04/02 03:41:53;;;;;;;9.05;3.40;;;6.50;85.50;;;;;;5095782;28;20040;-13
2022/04/02 03:44:20;;;;;;;10.13;3.30;;;6.50;85.70;;;;;;5095622;28;20016;-14
2022/04/02 03:49:30;;;;;;;8.48;3.00;;;6.40;86.10;;;;;;5095741;28;20038;-13
2022/04/02 03:51:56;;;;;;;17.83;4.70;;;6.40;86.40;;;;;;5094204;28;20033;-14
2022/04/02 03:54:22;;;;;;;18.75;4.70;;;6.40;86.40;;;;;;5095540;28;20148;-14
2022/04/02 03:56:48;;;;;;;12.23;3.60;;;6.40;86.50;;;;;;5095551;28;20028;-14
2022/04/02 03:59:14;;;;;;;9.43;3.03;;;6.40;86.60;;;;;;5095785;28;20086;-12
2022/04/02 04:01:40;;;;;;;5.90;2.97;;;6.40;86.50;;;;;;5095718;28;20497;-13
2022/04/02 04:04:06;;;;;;;7.97;2.90;;;6.40;86.60;;;;;;5095650;28;20484;-13
2022/04/02 04:06:32;;;;;;;8.60;3.28;;;6.40;86.80;;;;;;5093891;28;20484;-14
2022/04/02 04:08:59;;;;;;;9.57;3.40;;;6.40;86.90;;;;;;5095468;28;20071;-13
2022/04/02 04:11:26;;;;;;;5.07;2.83;;;6.40;87.00;;;;;;5095212;28;20035;-14
2022/04/02 04:13:53;;;;;;;6.97;2.90;;;6.40;87.00;;;;;;5095357;28;20017;-13
2022/04/02 04:16:20;;;;;;;6.10;2.75;;;6.40;87.10;;;;;;5095217;28;20040;-13
2022/04/02 04:18:46;;;;;;;7.45;3.17;;;6.40;87.00;;;;;;5095072;28;20107;-13
2022/04/02 04:21:14;;;;;;;7.07;2.83;;;6.40;86.90;;;;;;5095316;28;20047;-13
2022/04/02 04:23:42;;;;;;;6.93;2.70;;;6.40;86.80;;;;;;5094529;28;20024;-14
2022/04/02 04:26:09;;;;;;;9.15;3.10;;;6.40;85.60;;;;;;5095414;28;20031;-13
2022/04/02 04:28:37;;;;;;;8.23;2.95;;;6.40;85.90;;;;;;5094969;28;20032;-13
2022/04/02 04:31:04;;;;;;;4.90;3.03;;;6.30;85.80;;;;;;5094751;28;20024;-14
2022/04/02 04:33:31;;;;;;;7.80;2.72;;;6.30;85.90;;;;;;5094972;28;20032;-13
2022/04/02 04:35:58;;;;;;;8.00;3.33;;;6.30;85.90;;;;;;5094735;28;20031;-14
2022/04/02 04:38:24;;;;;;;5.22;2.75;;;6.30;85.90;;;;;;5093165;28;20020;-13
2022/04/02 04:40:50;;;;;;;9.77;3.10;;;6.30;85.90;;;;;;5094664;28;20429;-13
2022/04/02 04:43:16;;;;;;;6.40;2.50;;;6.30;85.80;;;;;;5094779;28;20543;-13
2022/04/02 04:45:42;;;;;;;6.18;2.90;;;6.20;85.80;;;;;;5094531;28;20039;-12
2022/04/02 04:48:08;;;;;;;9.23;3.20;;;6.20;86.00;;;;;;5094802;28;20035;-13
2022/04/02 04:50:35;;;;;;;5.38;2.85;;;6.20;86.20;;;;;;5094538;28;20081;-12
2022/04/02 04:53:02;;;;;;;6.15;2.92;;;6.20;86.20;;;;;;5094394;28;20106;-13
2022/04/02 04:55:29;;;;;;;6.75;2.88;;;6.20;86.30;;;;;;5094214;28;20510;-13
2022/04/02 04:57:55;;;;;;;6.90;2.83;;;6.20;86.30;;;;;;5094328;28;20032;-13
2022/04/02 05:00:23;;;;;;;6.00;2.50;;;6.20;86.40;;;;;;5094169;28;20483;-14
2022/04/02 05:02:49;;;;;;;5.93;2.50;;;6.20;86.60;;;;;;5094207;28;20460;-13
2022/04/02 05:05:15;;;;;;;6.53;2.88;;;6.20;86.50;;;;;;5094124;28;20107;-13
2022/04/02 05:07:41;;;;;;;4.32;2.42;;;6.20;86.60;;;;;;5094421;28;20016;-13
2022/04/02 05:10:09;;;;;;;7.80;2.80;;;6.20;86.80;;;;;;5094149;28;20032;-12
2022/04/02 05:12:39;;;;;;;6.72;2.67;;;6.20;86.60;;;;;;5093852;28;20115;-13
2022/04/02 05:15:08;;;;;;;6.65;2.63;;;6.20;86.60;;;;;;5093886;28;20488;-13
2022/04/02 05:17:35;;;;;;;7.88;3.00;;;6.30;86.60;;;;;;5093884;28;20071;-13
2022/04/02 05:20:03;;;;;;;10.48;3.10;;;6.30;86.40;;;;;;5094258;28;20032;-13
2022/04/02 05:22:29;;;;;;;12.90;4.60;;;6.30;86.40;;;;;;5093965;28;20030;-12
2022/04/02 05:24:55;;;;;;;11.68;4.68;;;6.30;86.50;;;;;;5094112;28;20058;-13
2022/04/02 05:27:21;;;;;;;8.23;3.40;;;6.30;86.50;;;;;;5093785;28;20537;-13
2022/04/02 05:29:47;;;;;;;10.40;3.15;;;6.30;86.40;;;;;;5094075;28;20032;-12
2022/04/02 05:32:13;;;;;;;7.68;3.00;;;6.30;86.20;;;;;;5093844;28;20020;-13
2022/04/02 05:34:39;;;;;;;5.45;2.40;;;6.40;86.50;;;;;;5093876;28;20020;-13
2022/04/02 05:37:06;;;;;;;4.60;2.58;;;6.40;86.60;;;;;;5093271;28;20597;-13
2022/04/02 05:39:32;;;;;;;6.05;3.25;;;6.40;86.50;;;;;;5093497;28;20020;-12
2022/04/02 05:41:59;;;;;;;11.07;4.47;;;6.40;86.80;;;;;;5093528;28;20416;-13
2022/04/02 05:44:25;;;;;;;6.65;3.78;;;6.40;87.10;;;;;;5093632;28;20028;-13
2022/04/02 05:46:51;;;;;;;8.07;3.10;;;6.40;86.90;;;;;;5093519;28;20492;-13
2022/04/02 05:49:17;;;;;;;10.82;4.60;;;6.50;86.80;;;;;;5094038;28;20039;-13
2022/04/02 05:51:44;;;;;;;12.10;4.45;;;6.60;87.10;;;;;;5093747;28;20526;-12
2022/04/02 05:54:10;;;;;;;11.13;4.05;;;6.70;86.90;;;;;;5093342;28;20498;-13
2022/04/02 05:56:38;;;;;;;10.85;3.75;;;6.70;87.00;;;;;;5093293;28;20069;-12
2022/04/02 05:59:07;;;;;;;8.55;4.55;;;6.80;86.80;;;;;;5093619;28;20016;-14
2022/04/02 06:01:35;;;;;;;8.48;3.63;;;7.00;86.90;;;;;;5093267;28;20038;-12
2022/04/02 06:04:03;;;;;;;12.05;4.18;;;7.10;86.40;;;;;;5093583;28;20042;-12
2022/04/02 06:06:30;;;;;;;10.63;4.22;;;7.30;85.50;;;;;;5093275;28;20098;-13
2022/04/02 06:08:58;;;;;;;17.27;7.47;;;7.30;85.50;;;;;;5093127;28;20392;-12
2022/04/02 06:11:24;;;;;;;13.82;5.78;;;7.40;85.30;;;;;;5093502;28;20028;-12
2022/04/02 06:13:50;;;;;;;17.63;8.73;;;7.50;85.20;;;;;;5093878;28;20123;-12
2022/04/02 06:16:16;;;;;;;12.60;6.47;;;7.50;85.10;;;;;;5092946;28;20071;-12
2022/04/02 06:18:44;;;;;;;10.65;6.00;;;7.60;85.10;;;;;;5093347;28;20089;-12
2022/04/02 06:21:11;;;;;;;10.68;5.03;;;7.60;84.80;;;;;;5093081;28;20020;-12
2022/04/02 06:23:37;;;;;;;9.07;4.00;;;7.70;84.60;;;;;;5093210;28;20039;-12
2022/04/02 06:26:03;;;;;;;7.70;4.25;;;7.70;84.70;;;;;;5093029;28;20115;-12
2022/04/02 06:28:29;;;;;;;8.27;4.28;;;7.70;84.70;;;;;;5092801;28;20032;-12
2022/04/02 06:30:56;;;;;;;10.88;4.00;;;7.80;84.70;;;;;;5093328;28;20028;-13
2022/04/02 06:33:22;;;;;;;7.80;3.53;;;7.80;84.80;;;;;;5092916;28;20074;-12
2022/04/02 06:35:48;;;;;;;10.32;4.00;;;7.90;84.70;;;;;;5092943;28;20175;-12
2022/04/02 06:38:14;;;;;;;11.35;4.68;;;7.90;84.40;;;;;;5093027;28;20177;-11
2022/04/02 06:40:40;;;;;;;9.73;4.35;;;7.90;83.80;;;;;;5092741;28;20480;-12
2022/04/02 06:43:06;;;;;;;6.75;3.95;;;7.90;84.10;;;;;;5093225;28;20028;-13
2022/04/02 06:45:32;;;;;;;11.57;4.22;;;7.90;84.20;;;;;;5093175;28;20349;-12
2022/04/02 06:47:58;;;;;;;8.10;3.83;;;8.10;84.00;;;;;;5095674;28;20476;-12
2022/04/02 06:50:24;;;;;;;11.98;4.03;;;8.20;82.60;;;;;;5096687;28;20039;-12
2022/04/02 06:52:50;;;;;;;13.25;4.63;;;8.30;82.10;;;;;;5097058;28;20105;-12
2022/04/02 06:55:16;;;;;;;9.93;4.40;;;8.40;81.60;;;;;;5096515;28;20111;-12
2022/04/02 06:57:53;;;;;;;9.43;4.25;;;8.50;80.50;;;;;;5096657;28;20131;-13
2022/04/02 07:00:21;;;;;;;13.05;4.90;;;8.70;79.10;;;;;;5096481;28;20563;-13
2022/04/02 07:02:47;;;;;;;11.18;3.92;;;8.80;78.70;;;;;;5096588;28;20059;-12
2022/04/02 07:05:14;;;;;;;10.90;4.00;;;8.90;76.90;;;;;;5096585;28;20081;-13
2022/04/02 07:07:41;;;;;;;10.85;4.32;;;8.80;76.90;;;;;;5096613;28;20032;-12
2022/04/02 07:10:08;;;;;;;8.65;4.10;;;8.80;76.90;;;;;;5096473;28;20396;-12
2022/04/02 07:12:35;;;;;;;11.00;4.38;;;8.80;77.20;;;;;;5096483;28;20028;-12
2022/04/02 07:15:02;;;;;;;13.98;4.60;;;8.80;77.00;;;;;;5096303;28;20016;-12
2022/04/02 07:17:28;;;;;;;9.23;4.18;;;8.80;77.10;;;;;;5095078;28;20032;-11
2022/04/02 07:20:00;;;;;;;12.02;4.70;;;8.90;76.60;;;;;;5096386;28;20028;-11
2022/04/02 07:22:26;;;;;;;9.02;4.07;;;8.90;75.80;;;;;;5096049;28;20027;-12
2022/04/02 07:24:55;;;;;;;7.22;3.72;;;8.90;76.60;;;;;;5094769;28;20416;-12
2022/04/02 07:27:23;;;;;;;9.95;3.80;;;9.00;74.90;;;;;;5094871;28;20020;-11
2022/04/02 07:29:54;;;;;;;9.93;3.30;;;9.10;74.40;;;;;;5096341;28;20032;-12
2022/04/02 07:32:21;;;;;;;7.38;3.35;;;9.20;74.20;;;;;;5095872;28;20028;-12
2022/04/02 07:34:47;;;;;;;9.23;3.15;;;9.30;73.90;;;;;;5096176;28;20196;-12
2022/04/02 07:37:40;;;;;;;9.15;3.40;;;9.50;74.10;;;;;;5096271;28;20040;-12
2022/04/02 07:40:15;;;;;;;11.80;3.60;;;9.70;73.80;;;;;;5095817;28;20406;-10
2022/04/02 07:42:53;;;;;;;7.60;3.40;;;9.90;73.20;;;;;;5096069;28;20028;-12
2022/04/02 07:45:27;;;;;;;5.72;3.30;;;10.20;73.70;;;;;;5096149;28;20089;-12
2022/04/02 07:47:57;;;;;;;9.15;3.80;;;10.30;72.00;;;;;;5095773;28;20024;-11
2022/04/02 07:50:26;;;;;;;8.95;3.85;;;10.40;71.10;;;;;;5095768;28;20028;-12
2022/04/02 07:52:55;;;;;;;9.02;3.50;;;10.40;70.30;;;;;;5095519;28;20040;-12
2022/04/02 07:55:22;;;;;;;12.48;3.60;;;10.40;70.10;;;;;;5095627;28;20020;-12
2022/04/02 07:57:52;;;;;;;10.88;3.30;;;10.40;69.80;;;;;;5095815;28;20520;-11
2022/04/02 08:00:20;;;;;;;7.38;3.40;;;10.50;69.00;;;;;;5094823;28;20032;-12
2022/04/02 08:02:48;;;;;;;7.57;3.42;;;10.50;67.80;;;;;;5095725;28;20032;-11
2022/04/02 08:05:17;;;;;;;11.82;3.50;;;10.60;67.30;;;;;;5095624;28;20047;-12
2022/04/02 08:07:57;;;;;;;6.28;3.33;;;10.60;68.40;;;;;;5095596;28;20037;-11
2022/04/02 08:10:26;;;;;;;6.47;3.20;;;10.60;67.70;;;;;;5095310;28;20073;-12
2022/04/02 08:12:54;;;;;;;11.48;3.17;;;10.70;65.30;;;;;;5095507;28;20024;-12
2022/04/02 08:15:22;;;;;;;10.20;3.33;;;10.80;66.20;;;;;;5095353;28;20024;-12
2022/04/02 08:17:54;;;;;;;9.27;4.25;;;10.80;65.40;;;;;;5095421;28;20028;-11
2022/04/02 08:20:23;;;;;;;11.95;4.10;;;10.80;65.80;;;;;;5095189;28;20024;-12
2022/04/02 08:22:49;;;;;;;7.82;3.30;;;10.80;64.90;;;;;;5095277;28;20089;-12
2022/04/02 08:25:16;;;;;;;5.18;2.70;;;10.80;65.70;;;;;;5095068;28;20134;-11
2022/04/02 08:28:16;;;;;;;9.18;3.47;;;10.80;66.20;;;;;;5093697;28;20115;-11
2022/04/02 08:30:49;;;;;;;6.45;2.67;;;10.90;65.00;;;;;;5094796;28;20492;-12
2022/04/02 08:33:38;;;;;;;12.02;2.90;;;11.00;64.60;;;;;;5095142;28;20028;-12
2022/04/02 08:36:21;;;;;;;8.07;3.28;;;11.20;63.70;;;;;;5095133;28;20036;-12
2022/04/02 08:39:03;;;;;;;7.97;3.17;;;11.30;64.80;;;;;;5095045;28;20223;-12
2022/04/02 08:42:08;;;;;;;7.72;3.33;;;11.40;65.50;;;;;;5094729;28;20294;-11
2022/04/02 08:44:46;;;;;;;;;;;11.50;65.30;;;;;;5095183;28;20024;-11
2022/04/02 08:47:49;;;;;;;8.45;2.88;;;11.60;65.70;;;;;;5094912;28;19938;-11
2022/04/02 08:50:17;;;;;;;5.95;2.42;;;11.70;65.40;;;;;;5094603;28;20028;-11
2022/04/02 08:52:55;;;;;;;7.80;3.00;;;11.80;64.10;;;;;;5094617;28;20508;-12
2022/04/02 08:55:31;;;;;;;5.70;2.65;;;11.70;64.40;;;;;;5094239;28;20028;-11
2022/04/02 08:58:08;;;;;;;6.30;2.30;;;11.80;64.30;;;;;;5094378;28;20051;-11
2022/04/02 09:00:43;;;;;;;4.88;1.98;;;11.80;62.90;;;;;;5094944;28;20031;-11
2022/04/02 09:03:34;;;;;;;4.20;2.03;;;11.70;61.50;;;;;;5094260;28;20383;-12
2022/04/02 09:05:59;;;;;;;5.60;2.10;;;11.60;63.30;;;;;;5093025;28;20046;-11
2022/04/02 09:08:35;;;;;;;6.55;2.95;;;11.50;64.30;;;;;;5094042;28;20021;-12
2022/04/02 09:11:24;;;;;;;5.88;2.45;;;11.60;63.60;;;;;;5093604;28;20395;-11
2022/04/02 09:14:18;;;;;;;5.22;2.30;;;11.60;63.10;;;;;;5093574;28;20036;-11
2022/04/02 09:17:03;;;;;;;;;;;11.80;63.00;;;;;;5094497;28;20037;-12
2022/04/02 09:19:35;;;;;;;5.20;2.30;;;11.80;63.20;;;;;;5094287;28;19911;-11
2022/04/02 09:22:13;;;;;;;7.03;2.20;;;11.80;63.60;;;;;;5094526;28;20069;-12
2022/04/02 09:25:18;;;;;;;5.78;2.38;;;11.80;63.80;;;;;;5094123;28;20024;-12
2022/04/02 09:28:09;;;;;;;6.72;2.50;;;11.90;62.90;;;;;;5093817;28;20028;-12
2022/04/02 09:31:04;;;;;;;2.85;2.17;;;11.90;62.80;;;;;;5093896;28;20036;-12
2022/04/02 09:34:08;;;;;;;7.07;3.33;;;11.90;62.50;;;;;;5083023;28;20020;-11
2022/04/02 09:37:01;;;;;;;5.60;2.28;;;12.00;63.00;;;;;;5062074;28;20391;-11
2022/04/02 09:39:33;;;;;;;3.95;2.22;;;12.30;62.40;;;;;;5093879;28;20035;-13
2022/04/02 09:42:09;;;;;;;4.22;1.95;;;12.50;62.50;;;;;;5093598;28;20039;-11
2022/04/02 09:44:40;;;;;;;5.43;2.20;;;12.70;61.00;;;;;;5093755;28;20028;-12
2022/04/02 09:47:05;;;;;;;4.80;2.20;;;13.00;58.20;;;;;;5093863;28;20016;-12
2022/04/02 09:49:34;;;;;;;2.80;1.70;;;13.30;56.30;;;;;;5093621;28;20076;-12
2022/04/02 09:52:19;;;;;;;3.25;1.70;;;13.60;56.00;;;;;;5093085;28;20051;-11
2022/04/02 09:54:48;;;;;;;;;;;13.90;54.20;;;;;;5093955;28;20050;-12
2022/04/02 09:57:42;;;;;;;3.92;1.70;;;14.10;53.50;;;;;;5093688;28;20060;-11
2022/04/02 10:00:09;;;;;;;6.60;2.28;;;14.30;50.80;;;;;;5092143;28;20035;-11
2022/04/02 10:02:57;;;;;;;8.38;2.20;;;14.40;50.30;;;;;;5093350;28;20024;-11
2022/04/02 10:05:36;;;;;;;3.60;1.98;;;14.40;49.20;;;;;;5093602;28;20020;-11
2022/04/02 10:08:08;;;;;;;6.55;2.13;;;14.50;49.60;;;;;;5093571;28;20016;-11
2022/04/02 10:10:37;;;;;;;2.80;1.65;;;14.50;50.40;;;;;;5092945;28;20069;-11
2022/04/02 10:13:03;;;;;;;4.07;1.98;;;14.60;50.70;;;;;;5093198;28;20039;-11
2022/04/02 10:15:31;;;;;;;6.35;2.20;;;14.80;51.00;;;;;;5093706;28;20016;-11
2022/04/02 10:18:03;;;;;;;6.32;2.08;;;15.00;50.80;;;;;;5093138;28;20032;-11
2022/04/02 10:20:31;;;;;;;7.00;2.47;;;15.20;50.10;;;;;;5093365;28;20024;-11
2022/04/02 10:23:14;;;;;;;6.43;2.63;;;15.30;49.60;;;;;;5095792;28;20508;-11
2022/04/02 10:26:07;;;;;;;7.17;3.07;;;15.40;49.60;;;;;;5096047;28;20556;-11
2022/04/02 10:28:55;;;;;;;7.57;3.03;;;15.60;49.90;;;;;;5097465;28;20144;-11
2022/04/02 10:31:42;;;;;;;10.25;3.25;;;15.60;48.30;;;;;;5097267;28;20024;-11
2022/04/02 10:34:08;;;;;;;6.72;3.08;;;15.70;48.50;;;;;;5097238;28;20035;-11
2022/04/02 10:36:39;;;;;;;8.65;2.90;;;15.70;47.30;;;;;;5096908;28;20025;-11
2022/04/02 10:39:08;;;;;;;5.40;2.67;;;15.60;46.20;;;;;;5097256;28;20028;-10
2022/04/02 10:41:42;;;;;;;7.85;2.88;;;15.70;46.50;;;;;;5097362;28;20031;-11
2022/04/02 10:44:22;;;;;;;7.43;3.22;;;15.70;46.20;;;;;;5097015;28;20478;-11
2022/04/02 10:46:52;;;;;;;6.93;3.03;;;15.90;47.40;;;;;;5097765;28;20115;-11
2022/04/02 10:49:28;;;;;;;10.23;3.40;;;15.90;47.50;;;;;;5097222;28;20050;-13
2022/04/02 10:51:55;;;;;;;7.85;3.05;;;15.90;45.30;;;;;;5096828;28;20388;-11
2022/04/02 10:54:28;;;;;;;5.55;2.65;;;15.90;47.70;;;;;;5096469;28;20476;-11
2022/04/02 10:56:55;;;;;;;5.85;2.70;;;16.00;46.70;;;;;;5097091;28;20101;-11
2022/04/02 10:59:26;;;;;;;4.47;2.70;;;16.10;45.60;;;;;;5096676;28;20032;-12
2022/04/02 11:01:57;;;;;;;6.07;2.55;;;16.20;44.40;;;;;;5096907;28;20380;-11
2022/04/02 11:04:43;;;;;;;5.57;2.38;;;16.20;45.10;;;;;;5096665;28;20440;-11
2022/04/02 11:07:09;;;;;;;4.80;2.60;;;16.20;45.40;;;;;;5096532;28;20384;-11
2022/04/02 11:09:39;;;;;;;7.38;2.65;;;16.20;45.20;;;;;;5096550;28;20168;-13
2022/04/02 11:12:09;;;;;;;5.60;2.42;;;16.10;45.20;;;;;;5096402;28;20029;-11
2022/04/02 11:14:45;;;;;;;5.28;2.53;;;16.10;43.30;;;;;;5096071;28;20433;-11
2022/04/02 11:17:32;;;;;;;6.93;2.60;;;16.00;42.70;;;;;;5096364;28;20071;-11
2022/04/02 11:20:20;;;;;;;5.55;2.28;;;15.90;43.80;;;;;;5096560;28;20028;-11
2022/04/02 11:22:51;;;;;;;5.18;2.08;;;15.90;44.00;;;;;;5096270;28;20503;-12
2022/04/02 11:25:31;;;;;;;6.38;2.70;;;16.10;44.00;;;;;;5096100;28;20510;-11
2022/04/02 11:28:11;;;;;;;8.63;2.53;;;16.40;45.50;;;;;;5096496;28;20032;-12
2022/04/02 11:31:01;;;;;;;6.57;2.70;;;16.60;44.30;;;;;;5096132;28;20503;-12
2022/04/02 11:33:27;;;;;;;8.10;2.70;;;16.70;43.80;;;;;;5094218;28;20023;-13
2022/04/02 11:35:55;;;;;;;7.65;2.70;;;16.70;42.40;;;;;;5096205;28;20076;-11
2022/04/02 11:38:24;;;;;;;7.57;3.42;;;16.70;43.40;;;;;;5095917;28;20032;-12
2022/04/02 11:41:08;;;;;;;5.45;2.85;;;16.60;42.10;;;;;;5096032;28;20028;-11
2022/04/02 11:43:41;;;;;;;6.45;2.58;;;16.60;43.50;;;;;;5096192;28;20032;-11
2022/04/02 11:46:09;;;;;;;6.82;3.70;;;16.60;44.00;;;;;;5095849;28;20028;-12
2022/04/02 11:48:39;;;;;;;9.25;3.10;;;16.50;46.90;;;;;;5095762;28;20032;-11
2022/04/02 11:51:16;;;;;;;5.90;3.17;;;16.20;46.40;;;;;;5095659;28;20459;-12
2022/04/02 11:53:42;;;;;;;5.30;2.88;;;16.00;45.80;;;;;;5095310;28;20040;-11
2022/04/02 11:56:34;;;;;;;4.97;2.65;;;15.80;45.30;;;;;;5095636;28;20099;-12
2022/04/02 11:59:07;;;;;;;5.30;2.40;;;15.70;46.50;;;;;;5096010;28;20028;-12
2022/04/02 12:01:51;;;;;;;5.95;2.78;;;15.40;45.40;;;;;;5095715;28;20441;-11
2022/04/02 12:04:18;;;;;;;;;;;15.20;46.20;;;;;;5095993;28;20024;-11
2022/04/02 12:06:49;;;;;;;5.15;2.10;;;15.10;44.30;;;;;;5095388;28;19904;-12
2022/04/02 12:09:19;;;;;;;5.75;2.17;;;15.20;46.40;;;;;;5095282;28;20035;-11
2022/04/02 12:11:53;;;;;;;4.80;2.10;;;15.40;45.70;;;;;;5095268;28;20030;-12
2022/04/02 12:14:39;;;;;;;6.30;2.22;;;15.60;43.60;;;;;;5094985;28;20400;-10
2022/04/02 12:17:13;;;;;;;5.43;2.20;;;15.60;42.40;;;;;;5095677;28;20017;-12
2022/04/02 12:19:46;;;;;;;5.50;1.90;;;15.50;43.40;;;;;;5095146;28;20032;-11
2022/04/02 12:22:27;;;;;;;6.88;1.90;;;15.40;42.90;;;;;;5095274;28;20075;-13
2022/04/02 12:24:56;;;;;;;7.60;2.70;;;15.70;42.40;;;;;;5095605;28;20059;-11
2022/04/02 12:27:26;;;;;;;5.13;2.70;;;15.90;43.20;;;;;;5095254;28;20027;-11
2022/04/02 12:29:55;;;;;;;10.90;5.70;;;15.90;45.90;;;;;;5094880;28;20050;-12
2022/04/02 12:32:30;;;;;;;10.50;5.97;;;15.90;47.40;;;;;;5095495;28;20085;-11
2022/04/02 12:35:08;;;;;;;11.23;5.43;;;15.50;50.50;;;;;;5095759;28;20032;-11
2022/04/02 12:37:49;;;;;;;9.13;4.72;;;14.90;51.70;;;;;;5095138;28;20047;-11
2022/04/02 12:40:29;;;;;;;10.07;4.93;;;15.00;49.90;;;;;;5095091;28;20024;-11
2022/04/02 12:43:05;;;;;;;9.68;5.35;;;15.10;50.20;;;;;;5094986;28;20095;-11
2022/04/02 12:45:33;;;;;;;10.05;5.50;;;14.70;52.50;;;;;;5094432;28;20063;-12
2022/04/02 12:47:59;;;;;;;8.63;5.43;;;14.50;53.20;;;;;;5094621;28;20024;-12
2022/04/02 12:50:27;;;;;;;10.23;5.72;;;14.40;52.20;;;;;;5094311;28;20031;-11
2022/04/02 12:52:53;;;;;;;12.60;5.28;;;14.40;53.80;;;;;;5093053;28;20400;-12
2022/04/02 12:55:23;;;;;;;12.70;5.45;;;13.90;53.50;;;;;;5094595;28;20032;-11
2022/04/02 12:57:59;;;;;;;11.55;5.22;;;13.70;54.80;;;;;;5094992;28;20443;-12
2022/04/02 13:00:28;;;;;;;12.98;6.00;;;13.50;53.40;;;;;;5094482;28;20137;-11
2022/04/02 13:02:57;;;;;;;9.35;5.88;;;13.40;55.40;;;;;;5094596;28;20107;-12
2022/04/02 13:05:26;;;;;;;11.85;5.43;;;13.30;56.00;;;;;;5094532;28;20024;-12
2022/04/02 13:08:04;;;;;;;13.38;6.38;;;13.10;56.20;;;;;;5093009;28;20094;-12
2022/04/02 13:10:31;;;;;;;12.75;5.75;;;13.30;57.00;;;;;;5094215;28;20036;-12
2022/04/02 13:13:03;;;;;;;11.18;5.97;;;13.20;58.00;;;;;;5094097;28;20073;-11
2022/04/02 13:15:32;;;;;;;8.95;5.10;;;13.00;57.60;;;;;;5094303;28;20036;-11